Time;durP1;ratioP1;P1;durP2;ratioP2;P2;SDS_P1;SDS_P2;PMS_P1;PMS_P2;Temp;Humidity;BMP_temperature;BMP_pressure;BME280_temperature;BME280_humidity;BME280_pressure;Samples;Min_cycle;Max_cycle;Signal;HPM_P1;HPM_P2
2022/08/01 00:01:16;;;;;;;23.67;20.40;;;20.40;99.90;;;;;;5058474;28;20220;-75
2022/08/01 00:03:44;;;;;;;19.98;17.88;;;20.40;99.90;;;;;;5061070;28;20189;-75
2022/08/01 00:06:11;;;;;;;23.02;20.52;;;20.60;99.90;;;;;;5069502;28;20213;-74
2022/08/01 00:08:38;;;;;;;21.73;19.52;;;20.40;99.90;;;;;;5064004;28;20190;-75
2022/08/01 00:11:06;;;;;;;23.20;20.58;;;20.50;99.90;;;;;;5059072;28;20224;-75
2022/08/01 00:13:35;;;;;;;22.42;20.08;;;20.40;99.90;;;;;;5059738;28;20216;-75
2022/08/01 00:16:02;;;;;;;22.30;20.08;;;20.50;99.90;;;;;;5061630;28;20200;-74
2022/08/01 00:18:31;;;;;;;22.30;19.92;;;20.50;99.90;;;;;;5059748;28;20216;-75
2022/08/01 00:20:58;;;;;;;21.02;18.52;;;20.60;99.90;;;;;;5060724;28;20589;-75
2022/08/01 00:23:26;;;;;;;19.05;17.15;;;20.60;99.90;;;;;;5059350;28;20198;-75
2022/08/01 00:25:53;;;;;;;20.92;18.73;;;20.60;99.90;;;;;;5059384;28;20198;-75
2022/08/01 00:28:21;;;;;;;20.65;18.55;;;20.50;99.90;;;;;;5065589;28;20206;-74
2022/08/01 00:30:49;;;;;;;23.10;20.70;;;20.60;99.90;;;;;;5079158;28;20224;-74
2022/08/01 00:33:31;;;;;;;20.70;18.60;;;20.50;99.90;;;;;;5055155;28;20217;-75
2022/08/01 00:35:59;;;;;;;23.15;19.60;;;20.50;99.90;;;;;;5061060;28;20216;-74
2022/08/01 00:38:26;;;;;;;17.20;15.60;;;20.50;99.90;;;;;;5059323;28;20277;-75
2022/08/01 00:40:53;;;;;;;22.27;19.98;;;20.70;99.90;;;;;;5085616;28;20217;-74
2022/08/01 00:43:21;;;;;;;22.05;19.80;;;20.60;99.90;;;;;;5060768;28;20186;-74
2022/08/01 00:45:50;;;;;;;22.20;20.00;;;20.50;99.90;;;;;;5062958;28;20193;-75
2022/08/01 00:48:18;;;;;;;24.13;21.70;;;20.50;99.90;;;;;;5062741;28;20202;-75
2022/08/01 00:50:49;;;;;;;23.33;20.83;;;20.50;99.90;;;;;;5060819;28;22027;-74
2022/08/01 00:53:16;;;;;;;23.00;20.65;;;20.40;99.90;;;;;;5065606;28;20217;-74
2022/08/01 00:55:44;;;;;;;23.02;20.70;;;20.40;99.90;;;;;;5065711;28;20201;-74
2022/08/01 00:58:12;;;;;;;23.80;21.40;;;20.40;99.90;;;;;;5065087;28;20685;-74
2022/08/01 01:00:39;;;;;;;22.70;20.10;;;20.40;99.90;;;;;;5070048;28;20220;-74
2022/08/01 01:03:08;;;;;;;23.05;20.75;;;20.40;99.90;;;;;;5062576;28;20625;-75
2022/08/01 01:05:46;;;;;;;25.15;22.65;;;20.30;99.90;;;;;;5064061;28;20198;-74
2022/08/01 01:08:20;;;;;;;21.95;19.77;;;20.30;99.90;;;;;;5064915;28;20213;-74
2022/08/01 01:10:52;;;;;;;24.02;21.73;;;20.40;99.90;;;;;;5061633;28;20236;-75
2022/08/01 01:13:30;;;;;;;21.45;19.35;;;20.40;99.90;;;;;;5067541;28;20206;-75
2022/08/01 01:16:01;;;;;;;23.50;19.02;;;20.40;99.90;;;;;;5064977;28;20197;-74
2022/08/01 01:18:34;;;;;;;24.25;21.65;;;20.50;99.90;;;;;;5066026;28;20573;-75
2022/08/01 01:21:10;;;;;;;25.17;20.63;;;20.50;99.90;;;;;;5061768;28;20232;-74
2022/08/01 01:23:51;;;;;;;21.98;19.85;;;20.40;99.90;;;;;;5063544;28;20193;-75
2022/08/01 01:26:29;;;;;;;27.08;21.65;;;20.40;99.90;;;;;;5065653;28;20202;-75
2022/08/01 01:29:14;;;;;;;22.15;19.80;;;20.40;99.90;;;;;;5062178;28;20574;-74
2022/08/01 01:31:48;;;;;;;23.58;20.75;;;20.40;99.90;;;;;;5063588;28;20296;-75
2022/08/01 01:34:19;;;;;;;22.10;19.88;;;20.40;99.90;;;;;;5066043;28;20220;-74
2022/08/01 01:36:48;;;;;;;21.38;19.08;;;20.40;99.90;;;;;;5069616;28;20777;-74
2022/08/01 01:39:17;;;;;;;20.45;18.35;;;20.40;99.90;;;;;;5062551;28;20217;-74
2022/08/01 01:41:47;;;;;;;22.33;18.27;;;20.40;99.90;;;;;;5071893;28;20210;-75
2022/08/01 01:44:18;;;;;;;20.75;17.25;;;20.40;99.90;;;;;;5060638;28;20199;-75
2022/08/01 01:46:56;;;;;;;18.63;16.83;;;20.50;99.90;;;;;;5060872;28;20656;-75
2022/08/01 01:49:26;;;;;;;20.27;18.13;;;20.50;99.90;;;;;;5064437;28;20202;-74
2022/08/01 01:51:57;;;;;;;19.50;17.17;;;20.50;99.90;;;;;;5061409;28;20213;-77
2022/08/01 01:54:29;;;;;;;20.55;16.63;;;20.50;99.90;;;;;;5066351;28;20668;-77
2022/08/01 01:56:59;;;;;;;17.10;15.40;;;20.40;99.90;;;;;;5064689;28;20201;-77
2022/08/01 01:59:31;;;;;;;17.35;15.52;;;20.30;99.90;;;;;;5074109;28;20202;-77
2022/08/01 02:02:02;;;;;;;17.92;16.02;;;20.30;99.90;;;;;;5069435;28;20225;-77
2022/08/01 02:04:33;;;;;;;17.95;16.17;;;20.30;99.90;;;;;;5069541;28;20197;-77
2022/08/01 02:07:02;;;;;;;17.75;15.95;;;20.40;99.90;;;;;;5068482;28;20210;-75
2022/08/01 02:09:31;;;;;;;18.70;16.67;;;20.30;99.90;;;;;;5064657;28;20201;-75
2022/08/01 02:12:00;;;;;;;18.10;16.20;;;20.30;99.90;;;;;;5058576;28;20222;-75
2022/08/01 02:14:30;;;;;;;19.60;17.50;;;20.30;99.90;;;;;;5067998;28;20687;-75
2022/08/01 02:17:06;;;;;;;19.40;16.58;;;20.30;99.90;;;;;;5067527;28;20201;-75
2022/08/01 02:19:37;;;;;;;19.38;17.30;;;20.30;99.90;;;;;;5064839;28;20209;-75
2022/08/01 02:22:10;;;;;;;19.65;17.65;;;20.40;99.90;;;;;;5068073;28;20214;-75
2022/08/01 02:24:41;;;;;;;22.40;19.13;;;20.40;99.90;;;;;;5060794;28;20680;-75
2022/08/01 02:27:12;;;;;;;18.90;17.00;;;20.50;99.90;;;;;;5061502;28;20186;-75
2022/08/01 02:29:44;;;;;;;22.38;18.52;;;20.50;99.90;;;;;;5063722;28;20209;-75
2022/08/01 02:32:15;;;;;;;19.52;16.15;;;20.50;99.90;;;;;;5069448;28;20225;-75
2022/08/01 02:34:46;;;;;;;21.90;19.25;;;20.60;99.90;;;;;;5070117;28;20661;-75
2022/08/01 02:37:15;;;;;;;20.02;17.92;;;20.60;99.90;;;;;;5066003;28;20205;-75
2022/08/01 02:39:44;;;;;;;23.17;19.55;;;20.60;99.90;;;;;;5063108;28;20195;-75
2022/08/01 02:42:14;;;;;;;20.35;17.58;;;20.50;99.90;;;;;;5071936;28;20229;-75
2022/08/01 02:44:45;;;;;;;20.45;18.40;;;20.40;99.90;;;;;;5065947;28;20200;-75
2022/08/01 02:47:18;;;;;;;19.15;17.23;;;20.30;99.90;;;;;;5065873;28;20209;-75
2022/08/01 02:49:47;;;;;;;17.98;16.17;;;20.40;99.90;;;;;;5070013;28;20197;-75
2022/08/01 02:52:18;;;;;;;20.70;16.33;;;20.30;99.90;;;;;;5069345;28;20225;-75
2022/08/01 02:54:48;;;;;;;21.20;18.73;;;20.30;99.90;;;;;;5061085;28;20193;-75
2022/08/01 02:57:18;;;;;;;20.73;18.52;;;20.20;99.90;;;;;;5071779;28;20217;-76
2022/08/01 02:59:48;;;;;;;21.33;19.13;;;20.20;99.90;;;;;;5062360;28;20194;-76
2022/08/01 03:02:18;;;;;;;16.95;15.32;;;20.10;99.90;;;;;;5068893;28;20225;-75
2022/08/01 03:05:18;;;;;;;19.60;17.10;;;20.20;99.90;;;;;;5059777;28;20201;-76
2022/08/01 03:07:46;;;;;;;16.80;15.10;;;20.30;99.90;;;;;;5061873;28;20198;-76
2022/08/01 03:10:15;;;;;;;17.05;14.95;;;20.30;99.90;;;;;;5060623;28;20206;-76
2022/08/01 03:12:45;;;;;;;15.80;14.10;;;20.40;99.90;;;;;;5063883;28;20213;-75
2022/08/01 03:15:15;;;;;;;15.90;14.00;;;20.40;99.90;;;;;;5066015;28;20675;-75
2022/08/01 03:17:46;;;;;;;16.30;14.60;;;20.30;99.90;;;;;;5067841;28;20197;-75
2022/08/01 03:20:17;;;;;;;16.70;14.98;;;20.30;99.90;;;;;;5064085;28;20204;-75
2022/08/01 03:22:47;;;;;;;17.40;15.60;;;20.40;99.90;;;;;;5062180;28;20200;-75
2022/08/01 03:25:16;;;;;;;17.10;14.23;;;20.40;99.90;;;;;;5060038;28;20198;-75
2022/08/01 03:27:46;;;;;;;17.80;15.88;;;20.40;99.90;;;;;;5061883;28;20213;-76
2022/08/01 03:30:16;;;;;;;15.88;14.27;;;20.40;99.90;;;;;;5059331;28;20198;-76
2022/08/01 03:32:43;;;;;;;19.92;16.02;;;20.50;99.90;;;;;;5064589;28;20193;-76
2022/08/01 03:35:11;;;;;;;21.02;17.05;;;20.50;99.90;;;;;;5063495;28;20214;-75
2022/08/01 03:37:44;;;;;;;16.65;14.82;;;20.60;99.90;;;;;;5062584;28;20209;-75
2022/08/01 03:40:18;;;;;;;16.02;14.23;;;20.50;99.90;;;;;;5066635;28;20189;-75
2022/08/01 03:42:48;;;;;;;17.48;15.68;;;20.50;99.90;;;;;;5056790;28;20201;-75
2022/08/01 03:45:23;;;;;;;14.60;13.13;;;20.50;99.90;;;;;;5061306;28;20194;-75
2022/08/01 03:47:57;;;;;;;17.85;15.88;;;20.60;99.90;;;;;;5062486;28;20193;-75
2022/08/01 03:50:26;;;;;;;17.05;15.25;;;20.40;99.90;;;;;;5057692;28;20217;-76
2022/08/01 03:52:56;;;;;;;20.02;16.90;;;20.50;99.90;;;;;;5059447;28;20196;-75
2022/08/01 03:55:24;;;;;;;15.35;13.75;;;20.60;99.90;;;;;;5067371;28;20574;-76
2022/08/01 03:57:52;;;;;;;16.05;14.35;;;20.60;99.90;;;;;;5063201;28;20201;-75
2022/08/01 04:00:21;;;;;;;19.60;16.70;;;20.70;99.90;;;;;;5059914;28;20198;-77
2022/08/01 04:02:52;;;;;;;15.77;14.13;;;20.70;99.90;;;;;;5057759;28;20572;-76
2022/08/01 04:05:20;;;;;;;15.57;13.90;;;20.70;99.90;;;;;;5066678;28;20220;-76
2022/08/01 04:07:54;;;;;;;17.50;14.43;;;20.70;99.90;;;;;;5063272;28;20205;-76
2022/08/01 04:10:22;;;;;;;17.30;15.23;;;20.60;99.90;;;;;;5066242;28;20308;-76
2022/08/01 04:12:50;;;;;;;16.67;14.55;;;20.70;99.90;;;;;;5069752;28;20209;-76
2022/08/01 04:15:18;;;;;;;15.07;13.48;;;20.60;99.90;;;;;;5066067;28;20213;-76
2022/08/01 04:17:47;;;;;;;17.58;14.75;;;20.60;99.90;;;;;;5066517;28;20194;-76
2022/08/01 04:20:15;;;;;;;17.15;14.25;;;20.60;99.90;;;;;;5062951;28;20566;-76
2022/08/01 04:22:43;;;;;;;15.25;13.65;;;20.70;99.90;;;;;;5057803;28;20660;-76
2022/08/01 04:25:17;;;;;;;21.30;17.05;;;20.80;99.90;;;;;;5064128;28;20193;-76
2022/08/01 04:27:48;;;;;;;15.20;13.25;;;20.70;99.90;;;;;;5069212;28;20205;-76
2022/08/01 04:30:17;;;;;;;15.70;12.45;;;20.70;99.90;;;;;;5054738;28;20212;-76
2022/08/01 04:32:49;;;;;;;19.33;15.65;;;20.80;99.90;;;;;;5063927;28;20567;-76
2022/08/01 04:35:20;;;;;;;15.82;12.68;;;20.70;99.90;;;;;;5066335;28;20218;-76
2022/08/01 04:37:50;;;;;;;16.42;14.73;;;20.80;99.90;;;;;;5070856;28;20560;-76
2022/08/01 04:40:18;;;;;;;15.02;11.80;;;20.70;99.90;;;;;;5065030;28;20570;-76
2022/08/01 04:42:48;;;;;;;13.20;11.75;;;20.80;99.90;;;;;;5060992;28;20225;-76
2022/08/01 04:45:16;;;;;;;11.50;10.30;;;20.90;99.90;;;;;;5063272;28;20557;-76
2022/08/01 04:47:47;;;;;;;14.40;12.77;;;21.00;99.90;;;;;;5062089;28;20665;-76
2022/08/01 04:50:16;;;;;;;12.55;11.13;;;21.00;99.90;;;;;;5057935;28;20202;-76
2022/08/01 04:52:43;;;;;;;13.98;11.07;;;20.90;99.90;;;;;;5060004;28;20193;-76
2022/08/01 04:55:11;;;;;;;10.82;9.75;;;20.80;99.90;;;;;;5062890;28;20218;-76
2022/08/01 04:57:41;;;;;;;16.27;13.45;;;20.90;99.90;;;;;;5065678;28;20201;-76
2022/08/01 05:00:10;;;;;;;13.50;11.32;;;20.80;99.90;;;;;;5062445;28;20202;-77
2022/08/01 05:03:06;;;;;;;15.10;11.90;;;20.90;99.90;;;;;;5063981;28;20198;-76
2022/08/01 05:05:36;;;;;;;14.02;10.95;;;20.70;99.90;;;;;;5072041;28;20197;-77
2022/08/01 05:08:11;;;;;;;15.45;11.23;;;20.80;99.90;;;;;;5065167;28;20212;-77
2022/08/01 05:10:39;;;;;;;12.52;10.73;;;21.00;99.90;;;;;;5067441;28;20221;-77
2022/08/01 05:13:07;;;;;;;13.88;10.93;;;21.00;99.90;;;;;;5058436;28;20579;-77
2022/08/01 05:15:37;;;;;;;12.38;10.43;;;21.00;99.90;;;;;;5065607;28;20213;-77
2022/08/01 05:18:05;;;;;;;11.82;10.18;;;21.00;99.90;;;;;;5056519;28;20205;-77
2022/08/01 05:20:32;;;;;;;10.82;9.50;;;21.00;99.90;;;;;;5059776;28;20240;-77
2022/08/01 05:23:26;;;;;;;14.10;10.90;;;20.90;99.90;;;;;;5065578;28;20204;-77
2022/08/01 05:26:04;;;;;;;10.27;8.98;;;20.90;99.90;;;;;;5061317;28;20209;-77
2022/08/01 05:28:33;;;;;;;10.50;9.40;;;20.90;99.90;;;;;;5068043;28;20212;-77
2022/08/01 05:31:00;;;;;;;11.57;8.25;;;20.80;99.90;;;;;;5059192;28;20300;-77
2022/08/01 05:33:52;;;;;;;10.77;9.75;;;20.80;99.90;;;;;;5064758;28;20198;-77
2022/08/01 05:36:20;;;;;;;11.15;9.75;;;20.80;99.90;;;;;;5068911;28;20222;-77
2022/08/01 05:38:49;;;;;;;10.13;8.88;;;20.70;99.90;;;;;;5061475;28;20201;-77
2022/08/01 05:41:16;;;;;;;10.20;9.05;;;20.70;99.90;;;;;;5068983;28;20323;-76
2022/08/01 05:43:51;;;;;;;11.48;9.50;;;20.70;99.90;;;;;;5068986;28;20200;-78
2022/08/01 05:46:18;;;;;;;17.17;12.13;;;20.70;99.90;;;;;;5068516;28;20193;-76
2022/08/01 05:48:45;;;;;;;24.40;12.75;;;20.70;99.90;;;;;;5072468;28;20212;-76
2022/08/01 05:51:13;;;;;;;19.80;12.32;;;20.80;99.90;;;;;;5062534;28;20222;-76
2022/08/01 05:53:41;;;;;;;22.63;11.48;;;20.80;99.90;;;;;;5057982;28;20698;-76
2022/08/01 05:56:22;;;;;;;18.30;11.77;;;20.80;99.90;;;;;;5052324;28;20699;-76
2022/08/01 05:59:00;;;;;;;12.32;10.57;;;20.80;99.90;;;;;;5064545;28;20202;-76
2022/08/01 06:01:35;;;;;;;13.95;10.27;;;20.70;99.90;;;;;;5061829;28;20243;-76
2022/08/01 06:04:04;;;;;;;11.43;10.20;;;20.80;99.90;;;;;;5056601;28;20190;-77
2022/08/01 06:06:32;;;;;;;11.90;9.77;;;20.70;99.90;;;;;;5059755;28;20209;-76
2022/08/01 06:09:00;;;;;;;11.13;9.93;;;20.70;99.90;;;;;;5059416;28;20206;-76
2022/08/01 06:11:29;;;;;;;10.45;9.30;;;20.70;99.90;;;;;;5063461;28;20225;-76
2022/08/01 06:14:00;;;;;;;11.90;9.75;;;20.70;99.90;;;;;;5057369;28;20202;-77
2022/08/01 06:16:28;;;;;;;9.70;8.65;;;20.80;99.90;;;;;;5063996;28;20214;-77
2022/08/01 06:18:55;;;;;;;13.43;11.30;;;20.90;99.90;;;;;;5058087;28;20849;-77
2022/08/01 06:21:23;;;;;;;10.77;9.48;;;20.70;99.90;;;;;;5056834;28;20222;-77
2022/08/01 06:23:52;;;;;;;13.50;9.57;;;20.80;99.90;;;;;;5068250;28;20197;-77
2022/08/01 06:26:20;;;;;;;16.98;12.90;;;20.90;99.90;;;;;;5063530;28;20197;-77
2022/08/01 06:28:49;;;;;;;13.88;10.98;;;20.90;99.90;;;;;;5067777;28;20200;-77
2022/08/01 06:31:16;;;;;;;13.85;12.00;;;20.60;99.90;;;;;;5062314;28;20217;-77
2022/08/01 06:33:44;;;;;;;13.82;11.05;;;20.70;99.90;;;;;;5052846;28;20649;-77
2022/08/01 06:36:11;;;;;;;13.25;10.88;;;20.70;99.90;;;;;;5053899;28;20261;-76
2022/08/01 06:38:39;;;;;;;11.20;9.15;;;20.60;99.90;;;;;;5059506;28;20202;-76
2022/08/01 06:41:11;;;;;;;12.30;9.48;;;20.90;99.90;;;;;;5062956;28;20228;-76
2022/08/01 06:43:38;;;;;;;10.10;8.32;;;21.00;99.90;;;;;;5063499;28;20209;-76
2022/08/01 06:46:07;;;;;;;10.98;9.10;;;21.20;99.90;;;;;;5063304;28;20197;-77
2022/08/01 06:48:39;;;;;;;12.82;9.55;;;21.30;99.90;;;;;;5059268;28;20205;-76
2022/08/01 06:51:11;;;;;;;11.48;9.57;;;21.20;99.90;;;;;;5064038;28;20221;-77
2022/08/01 06:53:39;;;;;;;11.02;8.48;;;21.30;99.90;;;;;;5060598;28;20205;-79
2022/08/01 06:56:08;;;;;;;15.63;11.95;;;21.30;99.90;;;;;;5065111;28;20221;-81
2022/08/01 07:02:27;;;;;;;13.63;11.23;;;21.00;99.90;;;;;;5083844;27;21115;-81
2022/08/01 07:04:54;;;;;;;14.82;12.35;;;21.00;99.90;;;;;;5081495;28;20197;-84
2022/08/01 07:07:22;;;;;;;14.63;11.45;;;21.10;99.90;;;;;;5083547;28;20201;-81
2022/08/01 07:09:49;;;;;;;16.15;14.18;;;21.20;99.90;;;;;;5082403;28;20193;-78
2022/08/01 07:12:17;;;;;;;16.98;15.18;;;21.10;99.90;;;;;;5048912;28;20217;-78
2022/08/01 07:14:54;;;;;;;17.73;14.15;;;21.10;99.90;;;;;;5026024;28;20648;-78
2022/08/01 07:17:29;;;;;;;19.25;15.93;;;21.10;99.90;;;;;;5044129;28;20213;-77
2022/08/01 07:19:57;;;;;;;16.40;13.55;;;21.10;99.90;;;;;;5026075;28;20194;-78
2022/08/01 07:22:24;;;;;;;13.95;12.50;;;21.20;99.90;;;;;;5030660;28;20241;-78
2022/08/01 07:24:52;;;;;;;13.73;12.27;;;21.00;99.90;;;;;;5028123;28;20210;-78
2022/08/01 07:27:19;;;;;;;10.38;8.55;;;20.90;99.90;;;;;;5032465;28;20653;-78
2022/08/01 07:29:47;;;;;;;10.40;8.68;;;20.70;99.90;;;;;;5047169;28;20190;-78
2022/08/01 07:32:16;;;;;;;12.30;10.00;;;20.70;99.90;;;;;;5028943;28;20215;-78
2022/08/01 07:34:45;;;;;;;13.27;11.13;;;20.80;99.90;;;;;;5027581;28;20195;-78
2022/08/01 07:37:52;;;;;;;11.70;10.43;;;21.00;99.90;;;;;;5028340;28;20206;-78
2022/08/01 07:40:20;;;;;;;11.07;9.98;;;21.00;99.90;;;;;;5038561;28;20198;-77
2022/08/01 07:42:48;;;;;;;11.25;9.43;;;21.00;99.90;;;;;;5035286;28;20198;-77
2022/08/01 07:45:16;;;;;;;9.25;8.32;;;20.90;99.90;;;;;;5040802;28;20202;-78
2022/08/01 07:47:44;;;;;;;6.60;5.78;;;20.90;99.90;;;;;;5029099;28;20201;-78
2022/08/01 07:50:16;;;;;;;8.77;6.35;;;20.80;99.90;;;;;;5040615;28;20194;-78
2022/08/01 07:52:43;;;;;;;6.25;5.63;;;21.00;99.90;;;;;;5020575;28;20194;-78
2022/08/01 07:55:12;;;;;;;6.45;5.85;;;21.10;99.90;;;;;;5021968;28;20203;-78
2022/08/01 07:57:39;;;;;;;5.85;5.28;;;21.10;99.90;;;;;;5021988;28;20211;-78
2022/08/01 08:00:17;;;;;;;6.53;5.53;;;21.10;99.90;;;;;;5046173;28;20198;-77
2022/08/01 08:02:53;;;;;;;5.43;4.93;;;21.20;99.90;;;;;;5026156;28;20214;-78
2022/08/01 08:05:38;;;;;;;7.05;5.43;;;21.20;99.90;;;;;;5028144;28;20206;-78
2022/08/01 08:08:06;;;;;;;5.45;4.68;;;21.10;99.90;;;;;;5027825;28;20209;-78
2022/08/01 08:10:35;;;;;;;6.38;4.95;;;21.10;99.90;;;;;;5044728;28;20222;-78
2022/08/01 08:13:03;;;;;;;5.75;5.15;;;21.10;99.90;;;;;;5017687;28;20195;-77
2022/08/01 08:15:40;;;;;;;6.75;4.40;;;21.10;99.90;;;;;;5014171;28;20219;-77
2022/08/01 08:18:07;;;;;;;4.65;3.67;;;21.10;99.90;;;;;;5013833;28;20565;-78
2022/08/01 08:20:35;;;;;;;3.80;3.45;;;21.20;99.90;;;;;;5011621;28;20219;-79
2022/08/01 08:24:19;;;;;;;4.10;3.80;;;21.20;99.90;;;;;;5014478;28;20199;-77
2022/08/01 08:25:51;;;;;;;4.78;4.38;;;21.30;99.90;;;;;;5011984;28;20207;-76
2022/08/01 08:28:19;;;;;;;4.50;4.03;;;21.40;99.90;;;;;;5028825;28;20195;-77
2022/08/01 08:30:46;;;;;;;4.03;3.72;;;21.50;99.90;;;;;;5014396;28;20226;-77
2022/08/01 08:33:14;;;;;;;3.20;2.90;;;21.60;99.90;;;;;;5015971;28;20195;-77
2022/08/01 08:35:41;;;;;;;3.72;3.25;;;21.50;99.90;;;;;;5013391;28;20205;-78
2022/08/01 08:38:10;;;;;;;3.65;2.80;;;21.60;99.90;;;;;;5012627;28;20206;-78
2022/08/01 08:40:38;;;;;;;3.70;3.40;;;21.50;99.90;;;;;;5006124;28;20681;-78
2022/08/01 08:43:06;;;;;;;4.15;2.90;;;21.30;99.90;;;;;;5011876;28;20210;-78
2022/08/01 08:45:37;;;;;;;3.78;3.38;;;21.40;99.90;;;;;;5027729;28;20187;-81
2022/08/01 08:48:07;;;;;;;3.20;2.75;;;21.50;99.90;;;;;;5013627;28;20203;-78
2022/08/01 08:50:43;;;;;;;4.78;3.42;;;21.60;99.90;;;;;;5014078;28;20223;-78
2022/08/01 08:53:16;;;;;;;3.95;3.33;;;21.60;99.90;;;;;;5016512;28;20261;-79
2022/08/01 08:55:44;;;;;;;4.78;3.15;;;21.80;99.90;;;;;;5013706;28;20203;-78
2022/08/01 08:58:13;;;;;;;5.40;4.95;;;21.70;99.90;;;;;;5029116;28;20199;-79
2022/08/01 09:00:49;;;;;;;5.43;4.28;;;21.70;99.90;;;;;;5031262;28;20222;-79
2022/08/01 09:03:17;;;;;;;4.60;4.20;;;21.70;99.90;;;;;;5024562;28;20218;-78
2022/08/01 09:05:45;;;;;;;6.15;4.68;;;21.90;99.90;;;;;;5009330;28;20286;-77
2022/08/01 09:08:14;;;;;;;4.88;4.25;;;22.00;99.90;;;;;;5014570;28;20211;-79
2022/08/01 09:10:42;;;;;;;4.20;3.90;;;22.00;99.90;;;;;;5006755;28;20215;-78
2022/08/01 09:13:11;;;;;;;2.03;1.67;;;22.00;99.90;;;;;;5007420;28;20200;-78
2022/08/01 09:15:44;;;;;;;2.33;1.50;;;21.90;99.90;;;;;;5029285;28;20195;-79
2022/08/01 09:18:33;;;;;;;1.85;1.38;;;22.00;99.90;;;;;;5017203;28;20199;-78
2022/08/01 09:21:16;;;;;;;3.30;2.10;;;22.10;99.90;;;;;;5014872;28;20684;-78
2022/08/01 09:24:02;;;;;;;3.10;2.70;;;22.20;99.90;;;;;;5010560;28;20203;-79
2022/08/01 09:26:32;;;;;;;1.88;1.77;;;22.20;99.90;;;;;;5027920;28;20210;-78
2022/08/01 09:29:01;;;;;;;2.33;1.60;;;22.20;99.90;;;;;;5012358;28;20207;-78
2022/08/01 09:31:39;;;;;;;1.73;1.60;;;22.10;99.90;;;;;;5014210;28;20223;-80
2022/08/01 09:34:27;;;;;;;1.60;1.50;;;22.10;99.90;;;;;;5034384;28;20564;-83
2022/08/01 09:36:56;;;;;;;1.55;1.45;;;22.20;99.90;;;;;;5016729;28;20203;-82
2022/08/01 09:39:27;;;;;;;2.92;1.40;;;22.30;99.90;;;;;;5018873;28;20210;-80
2022/08/01 09:41:56;;;;;;;1.75;1.20;;;22.30;99.90;;;;;;5017918;28;20218;-80
2022/08/01 09:44:39;;;;;;;1.35;1.25;;;22.20;99.90;;;;;;5016566;28;20203;-80
2022/08/01 09:47:07;;;;;;;1.40;1.20;;;22.30;99.90;;;;;;5013840;28;20190;-80
2022/08/01 09:49:36;;;;;;;1.25;1.15;;;22.30;99.90;;;;;;5016433;28;20633;-80
2022/08/01 09:52:13;;;;;;;1.27;1.17;;;22.50;99.90;;;;;;5010689;28;20221;-81
2022/08/01 09:54:44;;;;;;;1.08;0.98;;;22.50;99.90;;;;;;5035834;28;20190;-80
2022/08/01 09:57:14;;;;;;;1.08;0.98;;;22.60;99.90;;;;;;5020235;28;20207;-78
2022/08/01 10:00:01;;;;;;;1.38;1.20;;;22.60;99.90;;;;;;5026793;28;20658;-78
2022/08/01 10:02:40;;;;;;;1.95;1.30;;;22.70;99.90;;;;;;5023136;28;20233;-78
2022/08/01 10:05:16;;;;;;;1.40;0.90;;;22.80;99.90;;;;;;5004594;28;20198;-78
2022/08/01 10:07:57;;;;;;;2.40;1.02;;;22.50;99.90;;;;;;5003196;28;20198;-78
2022/08/01 10:10:38;;;;;;;2.60;1.48;;;22.70;99.90;;;;;;5022280;28;20219;-78
2022/08/01 10:13:09;;;;;;;1.70;1.60;;;22.90;99.90;;;;;;5012561;28;20208;-78
2022/08/01 10:15:42;;;;;;;1.60;1.50;;;23.00;99.90;;;;;;5023077;28;20202;-78
2022/08/01 10:18:11;;;;;;;2.42;1.58;;;22.80;99.90;;;;;;5008506;28;20207;-80
2022/08/01 10:20:39;;;;;;;1.52;1.42;;;22.60;99.90;;;;;;5009248;28;20576;-78
2022/08/01 10:23:06;;;;;;;1.75;1.55;;;22.60;99.90;;;;;;5013868;28;20251;-78
2022/08/01 10:25:37;;;;;;;2.22;1.45;;;22.60;99.90;;;;;;5003541;28;20207;-78
2022/08/01 10:28:14;;;;;;;1.60;1.50;;;22.50;99.90;;;;;;5011443;28;20885;-79
2022/08/01 10:30:43;;;;;;;2.63;1.75;;;22.40;99.90;;;;;;5000375;28;20226;-78
2022/08/01 10:33:11;;;;;;;2.30;1.20;;;22.20;99.90;;;;;;4996534;28;20206;-77
2022/08/01 10:35:46;;;;;;;1.70;1.48;;;22.00;99.90;;;;;;5001201;28;20202;-78
2022/08/01 10:38:14;;;;;;;1.38;1.27;;;22.10;99.90;;;;;;5011383;28;20203;-76
2022/08/01 10:40:43;;;;;;;1.35;1.23;;;22.20;99.90;;;;;;5023774;28;20226;-76
2022/08/01 10:43:12;;;;;;;1.45;1.35;;;22.20;99.90;;;;;;5012489;28;20214;-77
2022/08/01 10:45:40;;;;;;;1.48;1.38;;;22.10;99.90;;;;;;5005476;28;20194;-76
2022/08/01 10:48:15;;;;;;;1.42;1.33;;;22.10;99.90;;;;;;5007858;28;20200;-76
2022/08/01 10:50:45;;;;;;;1.75;1.38;;;22.10;99.90;;;;;;5001287;28;20214;-77
2022/08/01 10:53:15;;;;;;;1.48;1.35;;;22.10;99.90;;;;;;5007888;28;20202;-77
2022/08/01 10:55:51;;;;;;;1.10;1.00;;;22.10;99.90;;;;;;5023624;28;20202;-77
2022/08/01 10:58:24;;;;;;;2.13;1.90;;;22.40;99.90;;;;;;5026565;28;20199;-80
2022/08/01 11:01:16;;;;;;;1.52;1.42;;;22.70;99.90;;;;;;5020175;28;20228;-77
2022/08/01 11:03:45;;;;;;;1.10;1.10;;;23.10;99.90;;;;;;4995063;28;20223;-80
2022/08/01 11:06:54;;;;;;;1.13;1.02;;;22.90;99.90;;;;;;5008718;28;20210;-77
2022/08/01 11:09:30;;;;;;;1.55;1.45;;;22.90;99.90;;;;;;5013017;28;20214;-77
2022/08/01 11:12:01;;;;;;;1.48;1.40;;;22.80;99.90;;;;;;5024808;28;20700;-77
2022/08/01 11:14:30;;;;;;;1.05;1.05;;;22.90;99.90;;;;;;5010553;28;20209;-77
2022/08/01 11:20:10;;;;;;;1.00;1.00;;;23.00;99.90;;;;;;5011937;28;20557;-77
2022/08/01 11:23:34;;;;;;;0.70;0.70;;;23.10;99.90;;;;;;5004284;28;20218;-79
2022/08/01 11:26:22;;;;;;;0.80;0.80;;;23.00;99.90;;;;;;5022733;28;20664;-78
2022/08/01 11:29:22;;;;;;;0.80;0.80;;;22.70;99.90;;;;;;5006452;28;20195;-77
2022/08/01 11:31:52;;;;;;;0.70;0.70;;;22.70;99.90;;;;;;5021050;28;20216;-77
2022/08/01 11:34:20;;;;;;;0.88;0.70;;;22.90;99.90;;;;;;5017849;28;20206;-77
2022/08/01 11:36:48;;;;;;;1.02;0.47;;;23.10;99.90;;;;;;5012644;28;20676;-77
2022/08/01 11:39:17;;;;;;;1.17;0.40;;;23.10;99.90;;;;;;5010336;28;20207;-77
2022/08/01 11:41:46;;;;;;;1.25;0.50;;;23.30;99.90;;;;;;5005570;28;20243;-77
2022/08/01 11:44:16;;;;;;;0.40;0.40;;;23.50;99.90;;;;;;5005428;28;20227;-77
2022/08/01 11:46:54;;;;;;;0.75;0.57;;;23.70;99.90;;;;;;5007553;28;20645;-77
2022/08/01 11:49:26;;;;;;;0.55;0.55;;;23.80;99.90;;;;;;5013071;28;20210;-76
2022/08/01 11:52:02;;;;;;;0.95;0.70;;;23.70;99.90;;;;;;5012052;28;20630;-79
2022/08/01 11:54:31;;;;;;;0.68;0.47;;;23.50;99.90;;;;;;5017079;28;20214;-76
2022/08/01 11:57:00;;;;;;;0.70;0.70;;;23.50;99.90;;;;;;5026567;28;20511;-77
2022/08/01 11:59:28;;;;;;;0.73;0.50;;;23.80;99.90;;;;;;5012106;28;20199;-77
2022/08/01 12:01:58;;;;;;;1.05;0.95;;;23.70;99.90;;;;;;5009984;28;20685;-77
2022/08/01 12:04:25;;;;;;;0.70;0.70;;;23.50;99.90;;;;;;5023936;28;20222;-77
2022/08/01 12:06:54;;;;;;;0.60;0.60;;;23.30;99.90;;;;;;5010021;28;20203;-77
2022/08/01 12:09:25;;;;;;;0.70;0.70;;;23.50;99.90;;;;;;5016275;28;20199;-77
2022/08/01 12:11:54;;;;;;;0.70;0.63;;;23.60;99.90;;;;;;5010555;28;20220;-77
2022/08/01 12:14:22;;;;;;;0.52;0.52;;;23.60;99.90;;;;;;5029021;28;20203;-78
2022/08/01 12:16:52;;;;;;;0.80;0.80;;;23.60;99.90;;;;;;5026224;28;20199;-77
2022/08/01 12:19:25;;;;;;;0.60;0.60;;;23.70;99.90;;;;;;5034243;28;20203;-77
2022/08/01 12:22:09;;;;;;;0.90;0.60;;;23.90;99.90;;;;;;5014145;28;20215;-77
2022/08/01 12:24:39;;;;;;;0.60;0.60;;;24.10;99.90;;;;;;5011514;28;20214;-77
2022/08/01 12:27:08;;;;;;;1.05;0.60;;;24.40;99.90;;;;;;5030280;28;20202;-77
2022/08/01 12:29:37;;;;;;;1.05;0.88;;;24.60;99.90;;;;;;5016612;28;20203;-77
2022/08/01 12:32:21;;;;;;;0.52;0.50;;;24.40;99.90;;;;;;5014563;28;20696;-77
2022/08/01 12:34:50;;;;;;;1.10;1.00;;;24.20;99.90;;;;;;5011962;28;20203;-77
2022/08/01 12:37:18;;;;;;;0.93;0.82;;;23.80;99.90;;;;;;5012920;28;20195;-77
2022/08/01 12:39:47;;;;;;;0.85;0.85;;;23.70;99.90;;;;;;5012590;28;20199;-76
2022/08/01 12:42:15;;;;;;;0.70;0.70;;;23.70;99.90;;;;;;5002979;28;20227;-76
2022/08/01 12:44:46;;;;;;;1.00;0.90;;;23.90;99.90;;;;;;5003700;28;20224;-77
2022/08/01 12:47:14;;;;;;;1.00;0.80;;;24.10;99.90;;;;;;5011905;28;20688;-76
2022/08/01 12:49:44;;;;;;;0.50;0.50;;;24.10;99.90;;;;;;5006360;28;20195;-77
2022/08/01 12:52:13;;;;;;;1.10;0.70;;;24.10;99.90;;;;;;5012634;28;20234;-77
2022/08/01 12:55:04;;;;;;;0.80;0.60;;;24.10;99.90;;;;;;5011246;28;20195;-76
2022/08/01 12:57:31;;;;;;;0.40;0.40;;;24.10;99.90;;;;;;5025001;28;20203;-76
2022/08/01 13:00:18;;;;;;;0.70;0.50;;;24.40;99.90;;;;;;5007602;28;20204;-76
2022/08/01 13:02:46;;;;;;;0.88;0.70;;;24.70;99.90;;;;;;5023190;28;20208;-76
2022/08/01 13:05:15;;;;;;;0.68;0.63;;;24.90;99.90;;;;;;5013667;28;20223;-77